createdAt,value
2022-11-28T00:01:33.361Z,62.31
2022-11-28T00:04:01.761Z,57.76
2022-11-28T00:06:29.897Z,56.94
2022-11-28T00:09:00.244Z,58.78
2022-11-28T00:11:28.383Z,63.46
2022-11-28T00:13:56.381Z,65.63
2022-11-28T00:16:24.535Z,62.40
2022-11-28T00:18:54.275Z,57.84
2022-11-28T00:21:24.827Z,56.71
2022-11-28T00:23:52.902Z,57.85
2022-11-28T00:26:24.700Z,61.07
2022-11-28T00:28:53.074Z,67.05
2022-11-28T00:31:24.027Z,66.63
2022-11-28T00:33:52.024Z,63.27
2022-11-28T00:36:20.876Z,58.52
2022-11-28T00:38:49.965Z,56.88
2022-11-28T00:41:21.250Z,59.02
2022-11-28T00:43:51.032Z,63.99
2022-11-28T00:46:21.630Z,65.38
2022-11-28T00:48:50.440Z,61.49
2022-11-28T00:51:19.652Z,56.97
2022-11-28T00:53:49.567Z,56.55
2022-11-28T00:56:20.655Z,59.84
2022-11-28T00:58:51.574Z,64.59
2022-11-28T01:01:19.482Z,64.76
2022-11-28T01:03:49.650Z,61.72
2022-11-28T01:06:23.376Z,57.34
2022-11-28T01:08:52.143Z,56.23
2022-11-28T01:11:21.173Z,58.84
2022-11-28T01:13:49.648Z,64.18
2022-11-28T01:16:17.760Z,65.04
2022-11-28T01:18:45.706Z,61.49
2022-11-28T01:21:14.117Z,57.44
2022-11-28T01:23:42.135Z,56.45
2022-11-28T01:26:15.266Z,58.54
2022-11-28T01:28:43.375Z,63.33
2022-11-28T01:31:14.389Z,64.40
2022-11-28T01:33:43.120Z,60.33
2022-11-28T01:36:12.895Z,56.47
2022-11-28T01:38:41.435Z,56.60
2022-11-28T01:41:10.348Z,59.42
2022-11-28T01:43:56.598Z,63.53
2022-11-28T01:46:24.585Z,64.77
2022-11-28T01:48:54.344Z,61.31
2022-11-28T01:51:22.306Z,57.12
2022-11-28T01:53:50.313Z,55.88
2022-11-28T01:56:23.306Z,58.18
2022-11-28T01:58:59.701Z,59.70
2022-11-28T02:01:27.665Z,65.32
2022-11-28T02:03:58.111Z,66.52
2022-11-28T02:06:27.559Z,63.20
2022-11-28T02:08:56.221Z,60.02
2022-11-28T02:11:56.339Z,56.13
2022-11-28T02:15:05.729Z,57.50
2022-11-28T02:17:58.314Z,58.53
2022-11-28T02:20:44.284Z,65.52
2022-11-28T02:23:20.965Z,65.30
2022-11-28T02:26:07.393Z,62.25
2022-11-28T02:28:46.006Z,57.59
2022-11-28T02:31:44.967Z,57.65
2022-11-28T02:34:23.634Z,59.49
2022-11-28T02:37:01.077Z,65.37
2022-11-28T02:39:31.567Z,65.38
2022-11-28T02:42:25.686Z,62.70
2022-11-28T02:45:20.545Z,60.40
2022-11-28T02:48:02.581Z,56.55
2022-11-28T02:50:35.886Z,57.58
2022-11-28T02:53:07.534Z,61.07
2022-11-28T02:55:41.668Z,65.15
2022-11-28T02:58:11.715Z,65.65
2022-11-28T03:00:44.183Z,62.92
2022-11-28T03:03:30.593Z,59.92
2022-11-28T03:06:01.751Z,56.54
2022-11-28T03:08:48.197Z,57.67
2022-11-28T03:11:21.671Z,59.45
2022-11-28T03:13:49.553Z,65.10
2022-11-28T03:16:29.384Z,65.75
2022-11-28T03:19:24.900Z,61.92
2022-11-28T03:22:03.183Z,58.08
2022-11-28T03:24:42.839Z,58.69
2022-11-28T03:27:37.971Z,60.81
2022-11-28T03:30:19.645Z,67.05
2022-11-28T03:32:53.464Z,65.69
2022-11-28T03:35:26.511Z,61.71
2022-11-28T03:38:00.982Z,57.59
2022-11-28T03:40:36.200Z,58.10
2022-11-28T03:43:08.513Z,61.17
2022-11-28T03:45:40.966Z,65.93
2022-11-28T03:48:30.883Z,65.73
2022-11-28T03:51:05.522Z,62.71
2022-11-28T03:53:48.278Z,58.62
2022-11-28T03:56:25.129Z,57.46
2022-11-28T03:58:57.675Z,60.96
2022-11-28T04:01:36.988Z,65.45
2022-11-28T04:04:28.237Z,65.43
2022-11-28T04:07:05.940Z,60.84
2022-11-28T04:09:47.785Z,57.23
2022-11-28T04:12:33.607Z,59.14
2022-11-28T04:15:08.727Z,59.89
2022-11-28T04:17:50.048Z,65.88
2022-11-28T04:20:30.096Z,66.22
2022-11-28T04:23:07.471Z,62.34
2022-11-28T04:25:38.366Z,57.59
2022-11-28T04:28:14.896Z,58.22
2022-11-28T04:30:45.641Z,60.02
2022-11-28T04:33:17.194Z,65.44
2022-11-28T04:35:51.969Z,66.18
2022-11-28T04:38:23.407Z,62.23
2022-11-28T04:40:57.095Z,58.43
2022-11-28T04:43:30.651Z,57.88
2022-11-28T04:46:09.607Z,60.82
2022-11-28T04:48:37.827Z,65.58
2022-11-28T04:51:28.005Z,65.69
2022-11-28T04:54:06.820Z,61.68
2022-11-28T04:56:42.940Z,57.53
2022-11-28T04:59:12.730Z,58.16
2022-11-28T05:01:43.869Z,60.09
2022-11-28T05:04:14.167Z,65.46
2022-11-28T05:06:42.037Z,66.25
2022-11-28T05:09:11.682Z,62.76
2022-11-28T05:11:39.966Z,60.00
2022-11-28T05:14:08.250Z,56.55
2022-11-28T05:16:36.271Z,56.45
2022-11-28T05:19:04.283Z,58.80
2022-11-28T05:21:32.196Z,63.29
2022-11-28T05:24:00.135Z,65.20
2022-11-28T05:26:32.131Z,61.47
2022-11-28T05:29:00.165Z,57.20
2022-11-28T05:31:28.755Z,56.51
2022-11-28T05:33:57.143Z,59.24
2022-11-28T05:36:25.027Z,64.19
2022-11-28T05:38:52.892Z,65.83
2022-11-28T05:41:23.301Z,62.29
2022-11-28T05:43:51.871Z,58.12
2022-11-28T05:46:20.611Z,56.47
2022-11-28T05:48:48.573Z,59.05
2022-11-28T05:51:17.218Z,63.11
2022-11-28T05:53:45.524Z,66.12
2022-11-28T05:56:16.505Z,62.92
2022-11-28T05:58:44.695Z,60.53
2022-11-28T06:01:18.602Z,56.36
2022-11-28T06:03:47.183Z,55.85
2022-11-28T06:06:20.969Z,58.11
2022-11-28T06:08:49.882Z,63.60
2022-11-28T06:11:19.863Z,64.56
2022-11-28T06:13:49.002Z,60.15
2022-11-28T06:16:20.341Z,56.32
2022-11-28T06:18:52.100Z,55.86
2022-11-28T06:21:21.249Z,58.01
2022-11-28T06:23:49.718Z,63.38
2022-11-28T06:26:21.655Z,65.71
2022-11-28T06:28:50.227Z,61.86
2022-11-28T06:31:21.357Z,57.20
2022-11-28T06:33:50.122Z,55.85
2022-11-28T06:36:18.969Z,59.06
2022-11-28T06:38:47.472Z,63.14
2022-11-28T06:41:19.100Z,64.86
2022-11-28T06:43:47.070Z,61.70
2022-11-28T06:46:18.917Z,57.83
2022-11-28T06:48:48.438Z,56.55
2022-11-28T06:51:17.634Z,59.17
2022-11-28T06:53:45.711Z,63.86
2022-11-28T06:56:16.253Z,65.16
2022-11-28T06:58:45.260Z,61.65
2022-11-28T07:01:21.762Z,57.59
2022-11-28T07:03:49.833Z,56.15
2022-11-28T07:06:19.914Z,58.10
2022-11-28T07:08:48.532Z,62.98
2022-11-28T07:11:25.601Z,64.57
2022-11-28T07:13:54.956Z,61.53
2022-11-28T07:16:26.000Z,57.40
2022-11-28T07:18:54.719Z,56.18
2022-11-28T07:21:24.127Z,59.24
2022-11-28T07:23:52.494Z,63.32
2022-11-28T07:26:21.749Z,65.49
2022-11-28T07:28:51.353Z,62.09
2022-11-28T07:31:26.773Z,57.70
2022-11-28T07:33:54.870Z,55.95
2022-11-28T07:36:25.565Z,58.15
2022-11-28T07:38:56.835Z,63.22
2022-11-28T07:41:27.322Z,64.49
2022-11-28T07:44:01.039Z,60.91
2022-11-28T07:46:31.167Z,57.15
2022-11-28T07:48:59.619Z,56.02
2022-11-28T07:51:31.578Z,58.96
2022-11-28T07:54:00.481Z,63.67
2022-11-28T07:56:50.203Z,64.75
2022-11-28T07:59:19.054Z,61.57
2022-11-28T08:01:46.979Z,57.33
2022-11-28T08:04:15.007Z,56.35
2022-11-28T08:06:44.388Z,57.79
2022-11-28T08:09:12.469Z,61.43
2022-11-28T08:11:41.123Z,65.96
2022-11-28T08:14:09.406Z,66.33
2022-11-28T08:16:38.043Z,62.14
2022-11-28T08:19:05.964Z,57.84
2022-11-28T08:21:35.411Z,56.86
2022-11-28T08:24:04.976Z,58.70
2022-11-28T08:26:33.270Z,62.97
2022-11-28T08:29:02.443Z,65.71
2022-11-28T08:31:33.912Z,62.33
2022-11-28T08:34:04.544Z,57.82
2022-11-28T08:36:32.775Z,57.15
2022-11-28T08:39:23.980Z,59.59
2022-11-28T08:41:49.907Z,64.51
2022-11-28T08:44:17.881Z,64.55
2022-11-28T08:46:45.781Z,61.13
2022-11-28T08:49:13.679Z,57.33
2022-11-28T08:51:41.849Z,57.20
2022-11-28T08:54:09.790Z,59.19
2022-11-28T08:56:37.713Z,63.47
2022-11-28T08:59:07.136Z,65.18
2022-11-28T09:01:35.147Z,62.18
2022-11-28T09:04:04.334Z,58.04
2022-11-28T09:06:32.374Z,56.56
2022-11-28T09:09:02.065Z,58.19
2022-11-28T09:11:30.149Z,60.63
2022-11-28T09:13:58.101Z,65.06
2022-11-28T09:16:26.004Z,66.56
2022-11-28T09:18:55.187Z,61.96
2022-11-28T09:21:23.402Z,57.18
2022-11-28T09:23:54.413Z,56.27
2022-11-28T09:26:24.769Z,57.95
2022-11-28T09:28:53.634Z,59.88
2022-11-28T09:31:21.985Z,64.89
2022-11-28T09:33:50.148Z,66.06
2022-11-28T09:36:20.906Z,62.10
2022-11-28T09:38:49.625Z,57.17
2022-11-28T09:41:32.756Z,56.13
2022-11-28T09:44:14.979Z,57.76
2022-11-28T09:46:44.412Z,60.65
2022-11-28T09:49:36.783Z,66.01
2022-11-28T09:52:22.939Z,66.26
2022-11-28T09:55:02.429Z,62.34
2022-11-28T09:57:48.348Z,57.02
2022-11-28T10:00:31.118Z,56.83
2022-11-28T10:03:04.911Z,57.74
2022-11-28T10:05:57.140Z,59.51
2022-11-28T10:08:46.919Z,64.53
2022-11-28T10:11:50.603Z,64.71
2022-11-28T10:14:32.932Z,59.73
2022-11-28T10:17:14.805Z,54.75
2022-11-28T10:20:02.920Z,55.07
2022-11-28T10:22:55.892Z,56.46
2022-11-28T10:25:32.583Z,57.96
2022-11-28T10:28:01.597Z,59.63
2022-11-28T10:30:34.380Z,64.25
2022-11-28T10:33:40.012Z,66.03
2022-11-28T10:36:14.675Z,61.21
2022-11-28T10:38:42.621Z,56.88
2022-11-28T10:41:23.016Z,53.49
2022-11-28T10:44:17.053Z,55.76
2022-11-28T10:47:00.851Z,56.60
2022-11-28T10:49:54.010Z,59.04
2022-11-28T10:52:30.181Z,58.79
2022-11-28T10:55:00.531Z,59.66
2022-11-28T10:57:39.860Z,62.96
2022-11-28T11:00:20.021Z,64.68
2022-11-28T11:02:50.107Z,57.36
2022-11-28T11:05:22.074Z,54.04
2022-11-28T11:07:56.434Z,54.32
2022-11-28T11:10:33.814Z,53.13
2022-11-28T11:13:15.965Z,51.03
2022-11-28T11:15:46.023Z,48.12
2022-11-28T11:18:30.392Z,47.67
2022-11-28T11:21:19.253Z,46.55
2022-11-28T11:23:48.971Z,43.54
2022-11-28T11:26:25.313Z,41.80
2022-11-28T11:28:53.458Z,41.18
2022-11-28T11:31:32.953Z,41.99
2022-11-28T11:34:04.921Z,41.41
2022-11-28T11:36:36.397Z,42.70
2022-11-28T11:39:19.114Z,44.84
2022-11-28T11:42:07.232Z,46.94
2022-11-28T11:44:36.735Z,47.96
2022-11-28T11:47:09.905Z,49.82
2022-11-28T11:49:50.960Z,50.74
2022-11-28T11:52:24.503Z,52.06
2022-11-28T11:54:58.831Z,53.66
2022-11-28T11:57:38.176Z,54.35
2022-11-28T12:00:18.469Z,56.19
2022-11-28T12:02:50.499Z,56.20
2022-11-28T12:05:28.093Z,58.63
2022-11-28T12:08:11.448Z,65.38
2022-11-28T12:10:53.997Z,64.47
2022-11-28T12:13:24.244Z,56.40
2022-11-28T12:16:29.550Z,53.16
2022-11-28T12:19:33.657Z,53.60
2022-11-28T12:22:29.483Z,54.50
2022-11-28T12:25:13.313Z,55.94
2022-11-28T12:27:48.516Z,57.44
2022-11-28T12:30:26.687Z,58.16
2022-11-28T12:33:20.903Z,60.28
2022-11-28T12:36:15.198Z,60.41
2022-11-28T12:39:01.026Z,60.90
2022-11-28T12:41:45.790Z,61.52
2022-11-28T12:44:19.747Z,65.69
2022-11-28T12:47:01.073Z,65.83
2022-11-28T12:49:54.253Z,58.43
2022-11-28T12:52:38.534Z,54.76
2022-11-28T12:55:25.039Z,55.40
2022-11-28T12:58:09.114Z,57.36
2022-11-28T13:00:50.749Z,58.93
2022-11-28T13:03:42.992Z,58.31
2022-11-28T13:06:35.471Z,60.41
2022-11-28T13:09:10.457Z,64.85
2022-11-28T13:11:56.982Z,66.94
2022-11-28T13:14:49.187Z,62.05
2022-11-28T13:17:39.026Z,54.31
2022-11-28T13:20:19.987Z,53.96
2022-11-28T13:23:03.088Z,55.62
2022-11-28T13:25:49.208Z,57.31
2022-11-28T13:28:28.998Z,58.44
2022-11-28T13:31:04.566Z,58.82
2022-11-28T13:33:39.685Z,60.38
2022-11-28T13:38:35.189Z,65.33
2022-11-28T13:39:13.501Z,65.93
2022-11-28T13:42:21.406Z,58.37
2022-11-28T13:44:57.599Z,55.19
2022-11-28T13:47:35.253Z,56.84
2022-11-28T13:50:21.932Z,57.18
2022-11-28T13:53:03.005Z,54.17
2022-11-28T13:55:44.972Z,51.99
2022-11-28T13:58:31.301Z,50.39
2022-11-28T14:01:03.659Z,50.02
2022-11-28T14:03:36.576Z,48.38
2022-11-28T14:06:07.162Z,48.20
2022-11-28T14:08:41.572Z,47.24
2022-11-28T14:11:41.992Z,47.37
2022-11-28T14:14:31.298Z,48.10
2022-11-28T14:17:13.989Z,47.43
2022-11-28T14:20:10.759Z,47.77
2022-11-28T14:22:41.736Z,48.50
2022-11-28T14:25:22.726Z,49.09
2022-11-28T14:28:17.069Z,49.92
2022-11-28T14:30:46.863Z,50.68
2022-11-28T14:33:32.704Z,52.85
2022-11-28T14:36:07.043Z,54.36
2022-11-28T14:38:34.968Z,56.07
2022-11-28T14:41:15.339Z,58.48
2022-11-28T14:43:44.684Z,59.57
2022-11-28T14:46:15.790Z,63.82
2022-11-28T14:48:58.804Z,67.30
2022-11-28T14:51:48.612Z,65.83
2022-11-28T14:54:37.510Z,58.97
2022-11-28T14:57:25.121Z,56.51
2022-11-28T14:59:54.720Z,57.96
2022-11-28T15:02:45.634Z,59.56
2022-11-28T15:05:45.354Z,62.13
2022-11-28T15:08:16.346Z,67.94
2022-11-28T15:10:56.537Z,62.86
2022-11-28T15:13:45.881Z,57.89
2022-11-28T15:16:17.382Z,57.30
2022-11-28T15:18:59.628Z,58.76
2022-11-28T15:21:29.313Z,61.50
2022-11-28T15:23:57.372Z,66.83
2022-11-28T15:26:30.516Z,66.98
2022-11-28T15:29:19.647Z,62.27
2022-11-28T15:31:51.088Z,56.69
2022-11-28T15:34:33.638Z,56.85
2022-11-28T15:37:07.480Z,58.88
2022-11-28T15:39:40.441Z,60.78
2022-11-28T15:42:21.491Z,66.24
2022-11-28T15:44:56.765Z,66.99
2022-11-28T15:47:26.942Z,62.02
2022-11-28T15:50:02.460Z,57.14
2022-11-28T15:52:30.714Z,56.68
2022-11-28T15:54:58.728Z,59.09
2022-11-28T15:57:34.295Z,60.63
2022-11-28T16:00:03.342Z,66.14
2022-11-28T16:02:48.834Z,66.65
2022-11-28T16:05:23.606Z,61.45
2022-11-28T16:07:51.844Z,56.32
2022-11-28T16:10:37.966Z,56.22
2022-11-28T16:13:14.079Z,58.48
2022-11-28T16:15:49.849Z,60.52
2022-11-28T16:18:19.636Z,66.25
2022-11-28T16:20:48.116Z,65.67
2022-11-28T16:23:34.163Z,61.82
2022-11-28T16:26:33.280Z,56.27
2022-11-28T16:29:07.162Z,56.57
2022-11-28T16:31:44.196Z,58.29
2022-11-28T16:34:15.046Z,59.46
2022-11-28T16:36:50.253Z,65.40
2022-11-28T16:39:18.351Z,67.09
2022-11-28T16:41:52.162Z,62.71
2022-11-28T16:44:23.810Z,57.78
2022-11-28T16:46:59.572Z,56.59
2022-11-28T16:49:36.413Z,57.40
2022-11-28T16:52:22.814Z,60.47
2022-11-28T16:54:52.333Z,65.96
2022-11-28T16:57:45.937Z,66.85
2022-11-28T17:00:30.760Z,63.06
2022-11-28T17:03:39.909Z,57.87
2022-11-28T17:06:21.287Z,57.18
2022-11-28T17:08:49.665Z,59.23
2022-11-28T17:11:29.561Z,64.76
2022-11-28T17:14:10.280Z,66.64
2022-11-28T17:16:47.157Z,61.06
2022-11-28T17:19:24.718Z,56.87
2022-11-28T17:21:59.866Z,56.81
2022-11-28T17:24:35.923Z,59.98
2022-11-28T17:27:14.669Z,64.56
2022-11-28T17:29:50.376Z,65.13
2022-11-28T17:32:38.478Z,61.53
2022-11-28T17:35:25.447Z,57.06
2022-11-28T17:37:53.384Z,56.78
2022-11-28T17:40:33.288Z,59.87
2022-11-28T17:43:01.553Z,64.52
2022-11-28T17:45:32.363Z,63.81
2022-11-28T17:48:00.325Z,62.39
2022-11-28T17:50:28.713Z,58.28
2022-11-28T17:52:56.912Z,57.45
2022-11-28T17:55:25.046Z,60.87
2022-11-28T17:57:54.231Z,64.78
2022-11-28T18:00:22.683Z,64.67
2022-11-28T18:02:51.009Z,61.97
2022-11-28T18:05:19.134Z,57.59
2022-11-28T18:07:47.161Z,55.87
2022-11-28T18:10:15.343Z,57.87
2022-11-28T18:12:43.418Z,61.25
2022-11-28T18:15:11.444Z,66.50
2022-11-28T18:17:39.469Z,65.79
2022-11-28T18:20:08.480Z,61.10
2022-11-28T18:22:36.379Z,55.73
2022-11-28T18:25:05.844Z,56.04
2022-11-28T18:27:34.781Z,57.63
2022-11-28T18:30:03.264Z,59.77
2022-11-28T18:32:32.593Z,64.45
2022-11-28T18:35:00.948Z,66.69
2022-11-28T18:37:28.940Z,62.60
2022-11-28T18:39:56.870Z,58.57
2022-11-28T18:42:24.883Z,56.85
2022-11-28T18:44:53.416Z,59.67
2022-11-28T18:47:21.382Z,64.37
2022-11-28T18:49:49.308Z,65.83
2022-11-28T18:52:17.295Z,62.71
2022-11-28T18:54:46.123Z,58.08
2022-11-28T18:57:14.598Z,56.71
2022-11-28T18:59:49.780Z,58.11
2022-11-28T19:02:21.141Z,62.34
2022-11-28T19:04:49.231Z,65.69
2022-11-28T19:07:17.226Z,62.36
2022-11-28T19:09:45.784Z,57.71
2022-11-28T19:12:14.375Z,56.04
2022-11-28T19:14:42.457Z,58.86
2022-11-28T19:17:12.212Z,60.13
2022-11-28T19:19:41.389Z,65.63
2022-11-28T19:22:11.022Z,67.28
2022-11-28T19:24:40.168Z,63.12
2022-11-28T19:27:13.887Z,58.81
2022-11-28T19:29:43.264Z,56.63
2022-11-28T19:32:12.692Z,58.28
2022-11-28T19:34:40.625Z,62.92
2022-11-28T19:37:08.815Z,66.21
2022-11-28T19:39:37.110Z,62.53
2022-11-28T19:42:05.197Z,57.48
2022-11-28T19:44:33.349Z,55.68
2022-11-28T19:47:01.838Z,57.62
2022-11-28T19:49:30.028Z,59.47
2022-11-28T19:51:58.606Z,64.93
2022-11-28T19:54:27.054Z,66.13
2022-11-28T19:56:57.901Z,61.62
2022-11-28T19:59:27.413Z,57.40
2022-11-28T20:01:55.683Z,56.43
2022-11-28T20:04:23.850Z,59.20
2022-11-28T20:06:51.767Z,60.35
2022-11-28T20:09:20.067Z,65.62
2022-11-28T20:11:48.441Z,66.97
2022-11-28T20:14:18.682Z,64.33
2022-11-28T20:16:47.116Z,60.91
2022-11-28T20:19:16.205Z,57.13
2022-11-28T20:21:46.466Z,56.45
2022-11-28T20:24:16.164Z,58.52
2022-11-28T20:26:45.776Z,62.23
2022-11-28T20:29:16.664Z,67.40
2022-11-28T20:31:47.774Z,65.96
2022-11-28T20:34:19.079Z,61.63
2022-11-28T20:36:53.380Z,57.93
2022-11-28T20:39:21.496Z,57.01
2022-11-28T20:41:49.582Z,58.68
2022-11-28T20:44:19.118Z,63.55
2022-11-28T20:46:49.544Z,66.21
2022-11-28T20:49:18.330Z,62.86
2022-11-28T20:51:46.688Z,60.30
2022-11-28T20:54:14.814Z,56.66
2022-11-28T20:57:19.267Z,55.90
2022-11-28T20:59:32.606Z,57.39
2022-11-28T21:02:00.675Z,60.35
2022-11-28T21:04:28.711Z,66.16
2022-11-28T21:06:56.705Z,66.79
2022-11-28T21:09:24.804Z,62.96
2022-11-28T21:11:58.100Z,59.60
2022-11-28T21:14:32.232Z,55.57
2022-11-28T21:17:00.248Z,55.48
2022-11-28T21:19:28.190Z,57.90
2022-11-28T21:21:56.201Z,59.19
2022-11-28T21:24:24.323Z,65.38
2022-11-28T21:26:54.329Z,67.14
2022-11-28T21:29:24.173Z,62.37
2022-11-28T21:31:54.474Z,56.86
2022-11-28T21:34:22.975Z,55.16
2022-11-28T21:36:51.271Z,57.61
2022-11-28T21:39:20.876Z,58.73
2022-11-28T21:41:51.076Z,63.70
2022-11-28T21:44:19.488Z,66.61
2022-11-28T21:46:47.515Z,62.63
2022-11-28T21:49:17.312Z,57.55
2022-11-28T21:51:45.583Z,55.65
2022-11-28T21:54:13.830Z,56.86
2022-11-28T21:56:42.045Z,58.30
2022-11-28T21:59:09.991Z,63.07
2022-11-28T22:01:38.306Z,67.06
2022-11-28T22:04:06.824Z,63.31
2022-11-28T22:06:34.824Z,57.82
2022-11-28T22:11:53.926Z,57.34
2022-11-28T22:14:21.839Z,59.67
2022-11-28T22:16:49.728Z,64.43
2022-11-28T22:19:18.089Z,66.64
2022-11-28T22:21:54.200Z,63.08
2022-11-28T22:24:23.700Z,57.72
2022-11-28T22:26:52.850Z,55.50
2022-11-28T22:29:20.839Z,57.29
2022-11-28T22:31:50.037Z,59.37
2022-11-28T22:34:19.131Z,64.66
2022-11-28T22:36:47.080Z,66.83
2022-11-28T22:39:15.379Z,62.76
2022-11-28T22:41:43.389Z,57.10
2022-11-28T22:44:12.339Z,55.59
2022-11-28T22:46:40.342Z,57.41
2022-11-28T22:49:10.708Z,58.68
2022-11-28T22:51:40.259Z,64.24
2022-11-28T22:54:12.519Z,66.72
2022-11-28T22:56:40.941Z,62.28
2022-11-28T22:59:14.504Z,56.98
2022-11-28T23:01:43.712Z,55.97
2022-11-28T23:04:12.376Z,57.29
2022-11-28T23:06:40.615Z,59.69
2022-11-28T23:09:09.352Z,65.36
2022-11-28T23:11:38.590Z,67.50
2022-11-28T23:14:06.724Z,64.65
2022-11-28T23:16:38.170Z,60.57
2022-11-28T23:19:11.753Z,57.07
2022-11-28T23:21:42.683Z,56.57
2022-11-28T23:24:14.786Z,57.39
2022-11-28T23:26:44.897Z,58.91
2022-11-28T23:29:14.674Z,63.84
2022-11-28T23:31:43.998Z,67.23
2022-11-28T23:34:12.417Z,64.52
2022-11-28T23:36:43.168Z,60.44
2022-11-28T23:39:15.204Z,55.68
2022-11-28T23:41:44.205Z,55.36
2022-11-28T23:44:13.544Z,57.30
2022-11-28T23:46:42.082Z,58.85
2022-11-28T23:51:43.455Z,65.90
2022-11-28T23:54:17.431Z,62.68
2022-11-28T23:56:45.385Z,58.31
2022-11-28T23:59:18.886Z,56.04
